Time;durP1;ratioP1;P1;durP2;ratioP2;P2;SDS_P1;SDS_P2;PMS_P1;PMS_P2;Temp;Humidity;BMP_temperature;BMP_pressure;BME280_temperature;BME280_humidity;BME280_pressure;Samples;Min_cycle;Max_cycle;Signal;HPM_P1;HPM_P2
2021/11/15 00:01:59;;;;;;;;;;;;;;;7.44;95.99;101538.28;1645946;86;20166;-79
2021/11/15 00:04:25;;;;;;;;;;;;;;;7.51;95.78;101533.45;1655114;85;20267;-81
2021/11/15 00:06:50;;;;;;;;;;;;;;;7.51;95.38;101536.91;1622714;86;20711;-80
2021/11/15 00:09:16;;;;;;;;;;;;;;;7.35;95.71;101541.03;1617418;88;20267;-79
2021/11/15 00:11:42;;;;;;;;;;;;;;;7.28;96.32;101538.42;1590865;89;21086;-81
2021/11/15 00:14:07;;;;;;;;;;;;;;;7.44;96.08;101539.59;1607254;88;20248;-79
2021/11/15 00:16:33;;;;;;;;;;;;;;;7.44;96.00;101539.59;1602445;88;20623;-78
2021/11/15 00:18:58;;;;;;;;;;;;;;;7.52;95.87;101538.61;1630283;86;20403;-81
2021/11/15 00:21:24;;;;;;;;;;;;;;;7.37;96.29;101539.63;1621800;88;20133;-79
2021/11/15 00:23:50;;;;;;;;;;;;;;;7.23;97.33;101539.69;1595306;88;21006;-78
2021/11/15 00:26:15;;;;;;;;;;;;;;;7.24;97.50;101543.53;1620679;88;20164;-81
2021/11/15 00:28:41;;;;;;;;;;;;;;;7.19;97.75;101545.59;1617641;88;20450;-84
2021/11/15 00:31:07;;;;;;;;;;;;;;;7.22;98.03;101553.76;1653900;85;20143;-82
2021/11/15 00:33:32;;;;;;;;;;;;;;;7.35;97.86;101552.02;1655632;85;20180;-80
2021/11/15 00:35:58;;;;;;;;;;;;;;;7.38;97.27;101558.39;1656957;85;21101;-79
2021/11/15 00:38:23;;;;;;;;;;;;;;;7.36;97.60;101549.75;1654477;85;20383;-79
2021/11/15 00:40:49;;;;;;;;;;;;;;;7.35;97.58;101546.77;1652320;85;20163;-80
2021/11/15 00:43:15;;;;;;;;;;;;;;;7.37;97.47;101550.12;1654410;85;20851;-77
2021/11/15 00:45:40;;;;;;;;;;;;;;;7.50;97.07;101552.78;1659927;86;20326;-80
2021/11/15 00:48:06;;;;;;;;;;;;;;;7.48;96.54;101550.25;1654730;85;21046;-78
2021/11/15 00:50:32;;;;;;;;;;;;;;;7.53;96.68;101558.67;1624242;87;20787;-79
2021/11/15 00:52:57;;;;;;;;;;;;;;;7.52;96.39;101551.75;1611434;87;20138;-78
2021/11/15 00:55:23;;;;;;;;;;;;;;;7.60;96.21;101550.38;1624406;86;20660;-81
2021/11/15 00:57:49;;;;;;;;;;;;;;;7.43;96.59;101560.24;1623092;86;20110;-80
2021/11/15 01:00:17;;;;;;;;;;;;;;;7.47;96.77;101561.73;1624420;86;21181;-77
2021/11/15 01:02:43;;;;;;;;;;;;;;;7.47;96.98;101560.88;1621189;87;21103;-79
2021/11/15 01:05:09;;;;;;;;;;;;;;;7.50;96.97;101557.59;1607227;88;20172;-80
2021/11/15 01:07:34;;;;;;;;;;;;;;;7.55;96.79;101563.38;1625228;86;20184;-79
2021/11/15 01:10:00;;;;;;;;;;;;;;;7.65;96.54;101558.82;1629826;87;20174;-84
2021/11/15 01:12:25;;;;;;;;;;;;;;;7.61;96.63;101558.16;1664293;84;21035;-78
2021/11/15 01:14:51;;;;;;;;;;;;;;;7.58;96.91;101557.53;1659572;85;20879;-78
2021/11/15 01:17:17;;;;;;;;;;;;;;;7.55;97.03;101562.06;1661606;85;20147;-83
2021/11/15 01:19:42;;;;;;;;;;;;;;;7.65;96.79;101564.91;1656206;85;20200;-78
2021/11/15 01:22:08;;;;;;;;;;;;;;;7.58;96.73;101550.96;1659413;85;20166;-85
2021/11/15 01:24:33;;;;;;;;;;;;;;;7.62;96.91;101559.86;1663776;85;22125;-85
2021/11/15 01:26:59;;;;;;;;;;;;;;;7.71;96.70;101561.88;1657754;85;20149;-83
2021/11/15 01:29:24;;;;;;;;;;;;;;;7.66;96.66;101567.06;1665174;85;20172;-86
2021/11/15 01:31:50;;;;;;;;;;;;;;;7.63;96.92;101571.20;1665671;85;20148;-83
2021/11/15 01:34:16;;;;;;;;;;;;;;;7.60;97.47;101565.70;1663158;84;20917;-80
2021/11/15 01:36:41;;;;;;;;;;;;;;;7.67;97.32;101567.44;1665256;85;21182;-80
2021/11/15 01:39:07;;;;;;;;;;;;;;;7.70;97.27;101569.86;1661158;84;20160;-80
2021/11/15 01:41:32;;;;;;;;;;;;;;;7.71;97.20;101571.56;1664929;85;20159;-79
2021/11/15 01:43:58;;;;;;;;;;;;;;;7.82;96.87;101571.67;1660159;84;21418;-79
2021/11/15 01:46:24;;;;;;;;;;;;;;;7.79;96.82;101577.14;1660705;85;20163;-79
2021/11/15 01:48:49;;;;;;;;;;;;;;;7.71;96.96;101572.87;1660660;85;21184;-83
2021/11/15 01:51:15;;;;;;;;;;;;;;;7.73;97.13;101570.97;1657052;85;20217;-80
2021/11/15 01:53:40;;;;;;;;;;;;;;;7.82;97.09;101569.05;1662269;85;20230;-86
2021/11/15 01:56:06;;;;;;;;;;;;;;;7.83;97.08;101568.11;1665032;85;20141;-86
2021/11/15 01:58:31;;;;;;;;;;;;;;;7.79;97.10;101571.88;1661011;84;20217;-81
2021/11/15 02:00:58;;;;;;;;;;;;;;;7.84;97.09;101570.25;1660881;85;21213;-79
2021/11/15 02:03:25;;;;;;;;;;;;;;;7.76;97.42;101566.83;1663050;85;20189;-79
2021/11/15 02:05:50;;;;;;;;;;;;;;;7.85;97.21;101562.27;1653257;86;20114;-85
2021/11/15 02:08:16;;;;;;;;;;;;;;;7.83;97.13;101565.48;1646092;86;20788;-79
2021/11/15 02:10:41;;;;;;;;;;;;;;;7.88;97.04;101569.95;1648880;86;20196;-79
2021/11/15 02:13:07;;;;;;;;;;;;;;;7.91;97.15;101568.42;1643782;86;21096;-82
2021/11/15 02:15:33;;;;;;;;;;;;;;;7.82;97.03;101571.67;1651741;86;20144;-79
2021/11/15 02:17:59;;;;;;;;;;;;;;;7.80;97.39;101576.20;1645207;86;20219;-80
2021/11/15 02:20:25;;;;;;;;;;;;;;;7.68;98.13;101577.02;1648153;85;20831;-80
2021/11/15 02:22:52;;;;;;;;;;;;;;;7.64;98.88;101579.48;1649735;85;20189;-79
2021/11/15 02:25:19;;;;;;;;;;;;;;;7.62;99.31;101587.95;1652086;86;21105;-80
2021/11/15 02:27:45;;;;;;;;;;;;;;;7.58;99.76;101585.14;1645878;86;20203;-79
2021/11/15 02:30:13;;;;;;;;;;;;;;;7.67;99.72;101581.90;1647258;86;21475;-80
2021/11/15 02:32:39;;;;;;;;;;;;;;;7.68;99.81;101580.97;1646812;85;20673;-81
2021/11/15 02:35:05;;;;;;;;;;;;;;;7.75;99.35;101580.91;1648979;85;20172;-78
2021/11/15 02:37:30;;;;;;;;;;;;;;;7.78;99.69;101583.33;1643916;86;21106;-79
2021/11/15 02:39:56;;;;;;;;;;;;;;;7.87;99.50;101588.46;1648856;85;20446;-78
2021/11/15 02:42:22;;;;;;;;;;;;;;;7.90;99.07;101583.83;1647810;86;20162;-78
2021/11/15 02:44:47;;;;;;;;;;;;;;;7.98;98.64;101589.05;1647283;86;20199;-79
2021/11/15 02:47:13;;;;;;;;;;;;;;;7.98;98.11;101586.42;1649498;85;20719;-78
2021/11/15 02:49:38;;;;;;;;;;;;;;;8.05;98.07;101585.08;1649257;86;21983;-79
2021/11/15 02:52:04;;;;;;;;;;;;;;;8.08;97.27;101592.76;1646448;86;20131;-81
2021/11/15 02:54:30;;;;;;;;;;;;;;;8.12;96.91;101595.53;1639824;86;20326;-84
2021/11/15 02:56:55;;;;;;;;;;;;;;;8.17;96.61;101601.34;1647591;86;20467;-78
2021/11/15 02:59:21;;;;;;;;;;;;;;;8.17;96.38;101592.13;1646514;86;20141;-78
2021/11/15 03:01:47;;;;;;;;;;;;;;;8.19;95.92;101599.92;1644429;86;21243;-79
2021/11/15 03:04:15;;;;;;;;;;;;;;;8.18;95.65;101600.38;1639485;86;20249;-78
2021/11/15 03:06:41;;;;;;;;;;;;;;;8.22;95.55;101604.97;1632310;86;20215;-80
2021/11/15 03:09:07;;;;;;;;;;;;;;;8.19;95.38;101600.75;1627980;87;20258;-78
2021/11/15 03:11:33;;;;;;;;;;;;;;;8.11;95.41;101597.81;1628942;86;20807;-81
2021/11/15 03:13:58;;;;;;;;;;;;;;;8.20;95.07;101597.19;1630848;86;21106;-79
2021/11/15 03:16:24;;;;;;;;;;;;;;;8.21;94.77;101600.65;1629752;87;21013;-78
2021/11/15 03:18:50;;;;;;;;;;;;;;;8.22;94.52;101599.23;1627790;86;20301;-79
2021/11/15 03:21:18;;;;;;;;;;;;;;;8.25;94.40;101608.23;1634360;86;20122;-77
2021/11/15 03:23:45;;;;;;;;;;;;;;;8.24;94.31;101609.17;1628598;86;20211;-81
2021/11/15 03:26:10;;;;;;;;;;;;;;;8.21;94.02;101609.37;1628589;86;21025;-80
2021/11/15 03:28:43;;;;;;;;;;;;;;;8.27;93.96;101614.22;1627693;86;20286;-79
2021/11/15 03:31:20;;;;;;;;;;;;;;;8.28;93.65;101615.05;1628770;87;20163;-79
2021/11/15 03:33:47;;;;;;;;;;;;;;;8.25;93.54;101621.39;1632145;87;20799;-78
2021/11/15 03:36:12;;;;;;;;;;;;;;;8.26;93.51;101613.88;1629111;86;20168;-86
2021/11/15 03:38:38;;;;;;;;;;;;;;;8.29;93.45;101619.86;1630502;86;21238;-81
2021/11/15 03:41:04;;;;;;;;;;;;;;;8.26;93.15;101623.08;1627047;86;20190;-80
2021/11/15 03:43:30;;;;;;;;;;;;;;;8.23;93.13;101618.03;1628299;87;20270;-79
2021/11/15 03:45:55;;;;;;;;;;;;;;;8.22;93.35;101624.23;1628471;87;20170;-82
2021/11/15 03:48:21;;;;;;;;;;;;;;;8.27;93.38;101619.48;1625583;87;20237;-81
2021/11/15 03:50:47;;;;;;;;;;;;;;;8.31;93.22;101619.27;1632648;87;21026;-82
2021/11/15 03:53:13;;;;;;;;;;;;;;;8.31;92.83;101617.96;1626996;86;20194;-79
2021/11/15 03:55:40;;;;;;;;;;;;;;;8.33;92.97;101617.38;1628860;86;20304;-80
2021/11/15 03:58:05;;;;;;;;;;;;;;;8.35;92.44;101620.77;1629183;87;20182;-82
2021/11/15 04:00:33;;;;;;;;;;;;;;;8.34;92.62;101622.53;1627714;86;20343;-78
2021/11/15 04:03:03;;;;;;;;;;;;;;;8.32;92.71;101628.86;1627785;87;21336;-79
2021/11/15 04:05:32;;;;;;;;;;;;;;;8.30;92.40;101626.79;1631610;86;20229;-84
2021/11/15 04:08:00;;;;;;;;;;;;;;;8.37;92.71;101637.28;1628750;87;20158;-79
2021/11/15 04:10:32;;;;;;;;;;;;;;;8.34;92.27;101630.91;1635920;87;20147;-81
2021/11/15 04:13:01;;;;;;;;;;;;;;;8.31;92.26;101633.75;1631658;87;20187;-80
2021/11/15 04:15:26;;;;;;;;;;;;;;;8.27;92.26;101632.64;1634676;86;21115;-78
2021/11/15 04:17:52;;;;;;;;;;;;;;;8.21;92.22;101636.17;1630597;86;20220;-79
2021/11/15 04:20:18;;;;;;;;;;;;;;;8.13;92.26;101639.33;1632787;86;20226;-79
2021/11/15 04:22:44;;;;;;;;;;;;;;;8.17;92.83;101638.19;1635245;87;20155;-79
2021/11/15 04:25:10;;;;;;;;;;;;;;;8.21;92.66;101640.95;1632570;87;20609;-79
2021/11/15 04:27:35;;;;;;;;;;;;;;;8.12;92.76;101638.95;1633502;87;22292;-80
2021/11/15 04:30:01;;;;;;;;;;;;;;;8.09;93.15;101638.70;1634574;87;20148;-80
2021/11/15 04:32:27;;;;;;;;;;;;;;;8.11;93.36;101637.28;1634339;86;20189;-80
2021/11/15 04:34:52;;;;;;;;;;;;;;;8.12;93.13;101640.26;1633930;87;20727;-79
2021/11/15 04:37:18;;;;;;;;;;;;;;;8.13;93.22;101643.27;1633511;86;20184;-82
2021/11/15 04:39:43;;;;;;;;;;;;;;;8.19;93.07;101642.86;1631122;86;21161;-84
2021/11/15 04:42:09;;;;;;;;;;;;;;;8.19;92.83;101638.08;1631283;86;20303;-80
2021/11/15 04:44:35;;;;;;;;;;;;;;;8.26;92.57;101639.33;1636731;87;20266;-79
2021/11/15 04:47:00;;;;;;;;;;;;;;;8.21;92.15;101648.84;1635875;86;20118;-79
2021/11/15 04:49:26;;;;;;;;;;;;;;;8.16;92.11;101643.06;1630685;87;20154;-81
2021/11/15 04:51:52;;;;;;;;;;;;;;;8.24;92.17;101646.02;1631372;86;21090;-79
2021/11/15 04:54:18;;;;;;;;;;;;;;;8.33;92.09;101648.95;1629425;86;20725;-79
2021/11/15 04:56:43;;;;;;;;;;;;;;;8.32;91.76;101642.03;1633022;86;20225;-81
2021/11/15 04:59:09;;;;;;;;;;;;;;;8.36;91.77;101648.75;1630032;86;20142;-81
2021/11/15 05:01:35;;;;;;;;;;;;;;;8.33;91.59;101652.45;1634569;86;20125;-79
2021/11/15 05:04:00;;;;;;;;;;;;;;;8.41;91.55;101652.76;1633079;86;21144;-82
2021/11/15 05:06:26;;;;;;;;;;;;;;;8.37;91.37;101653.08;1654181;86;20529;-79
2021/11/15 05:08:52;;;;;;;;;;;;;;;8.41;91.47;101651.93;1646969;86;20168;-79
2021/11/15 05:11:17;;;;;;;;;;;;;;;8.32;91.08;101657.82;1647135;85;20168;-82
2021/11/15 05:13:43;;;;;;;;;;;;;;;8.36;91.26;101659.27;1649772;86;20164;-80
2021/11/15 05:16:08;;;;;;;;;;;;;;;8.36;91.26;101660.59;1645226;85;21015;-86
2021/11/15 05:18:34;;;;;;;;;;;;;;;8.32;91.25;101664.40;1646677;86;20697;-81
2021/11/15 05:21:00;;;;;;;;;;;;;;;8.34;91.13;101663.81;1644532;86;20230;-80
2021/11/15 05:23:27;;;;;;;;;;;;;;;8.29;91.39;101664.61;1649783;85;20504;-80
2021/11/15 05:25:53;;;;;;;;;;;;;;;8.35;91.30;101670.77;1648092;85;20244;-80
2021/11/15 05:28:19;;;;;;;;;;;;;;;8.39;91.36;101666.96;1648101;85;21117;-79
2021/11/15 05:30:44;;;;;;;;;;;;;;;8.30;91.11;101667.59;1644072;85;20200;-80
2021/11/15 05:33:10;;;;;;;;;;;;;;;8.15;91.34;101675.58;1651854;86;20204;-81
2021/11/15 05:35:36;;;;;;;;;;;;;;;8.03;91.87;101681.66;1644417;85;20137;-81
2021/11/15 05:38:01;;;;;;;;;;;;;;;7.98;92.00;101675.86;1647920;85;20149;-80
2021/11/15 05:40:27;;;;;;;;;;;;;;;7.97;92.42;101679.43;1647040;86;21112;-80
2021/11/15 05:42:54;;;;;;;;;;;;;;;7.77;92.99;101684.23;1647428;86;20195;-80
2021/11/15 05:45:20;;;;;;;;;;;;;;;7.79;93.21;101686.76;1648868;85;20190;-81
2021/11/15 05:47:46;;;;;;;;;;;;;;;7.67;93.93;101684.44;1644979;86;20189;-78
2021/11/15 05:50:12;;;;;;;;;;;;;;;7.62;94.26;101687.37;1646111;86;20191;-78
2021/11/15 05:52:42;;;;;;;;;;;;;;;7.63;94.46;101692.14;1649572;85;21940;-85
2021/11/15 05:55:09;;;;;;;;;;;;;;;7.75;94.38;101695.78;1651938;85;20222;-80
2021/11/15 05:57:34;;;;;;;;;;;;;;;7.77;94.31;101705.27;1653930;85;20272;-81
2021/11/15 06:00:00;;;;;;;;;;;;;;;7.71;94.35;101689.89;1644737;85;20150;-80
2021/11/15 06:02:25;;;;;;;;;;;;;;;7.80;94.28;101702.44;1646163;86;21155;-79
2021/11/15 06:04:51;;;;;;;;;;;;;;;7.82;94.26;101709.75;1645541;86;21127;-77
2021/11/15 06:07:17;;;;;;;;;;;;;;;7.75;94.45;101715.02;1642185;86;20126;-78
2021/11/15 06:09:42;;;;;;;;;;;;;;;7.85;94.25;101717.44;1643842;85;20557;-80
2021/11/15 06:12:08;;;;;;;;;;;;;;;7.76;94.65;101724.61;1639450;86;20123;-79
2021/11/15 06:14:34;;;;;;;;;;;;;;;7.59;95.08;101731.42;1638614;86;20284;-78
2021/11/15 06:16:59;;;;;;;;;;;;;;;7.57;95.96;101732.84;1643460;86;21204;-78
2021/11/15 06:19:25;;;;;;;;;;;;;;;7.55;95.97;101730.30;1646690;85;20782;-81
2021/11/15 06:21:51;;;;;;;;;;;;;;;7.59;95.88;101735.37;1646726;86;20311;-80
2021/11/15 06:24:16;;;;;;;;;;;;;;;7.59;96.00;101740.62;1646285;86;20845;-77
2021/11/15 06:26:42;;;;;;;;;;;;;;;7.59;95.81;101735.37;1649901;85;20147;-78
2021/11/15 06:29:08;;;;;;;;;;;;;;;7.55;95.29;101738.19;1642840;86;21109;-78
2021/11/15 06:31:34;;;;;;;;;;;;;;;7.49;95.93;101741.20;1639265;86;20150;-78
2021/11/15 06:33:59;;;;;;;;;;;;;;;7.52;95.84;101743.64;1645858;86;20507;-78
2021/11/15 06:36:25;;;;;;;;;;;;;;;7.47;95.81;101743.09;1646589;86;20806;-76
2021/11/15 06:38:52;;;;;;;;;;;;;;;7.50;95.55;101745.53;1644256;84;20147;-76
2021/11/15 06:41:18;;;;;;;;;;;;;;;7.60;95.40;101747.55;1639749;86;21159;-77
2021/11/15 06:43:43;;;;;;;;;;;;;;;7.66;95.03;101743.22;1647099;86;20196;-74
2021/11/15 06:46:09;;;;;;;;;;;;;;;7.49;94.42;101743.84;1640703;86;20157;-79
2021/11/15 06:48:41;;;;;;;;;;;;;;;7.57;94.89;101750.38;1645483;86;20459;-76
2021/11/15 06:51:05;;;;;;;;;;;;;;;7.54;94.56;101752.75;1647111;86;20190;-79
2021/11/15 06:53:31;;;;;;;;;;;;;;;7.68;94.64;101753.19;1641372;84;21893;-78
2021/11/15 06:55:59;;;;;;;;;;;;;;;7.66;94.25;101749.79;1644860;86;20193;-78
2021/11/15 06:58:25;;;;;;;;;;;;;;;7.71;94.06;101758.25;1642015;86;20295;-81
2021/11/15 07:00:51;;;;;;;;;;;;;;;7.71;93.53;101750.36;1644530;85;20209;-80
2021/11/15 07:03:17;;;;;;;;;;;;;;;7.58;93.11;101746.81;1642160;85;21281;-81
2021/11/15 07:05:42;;;;;;;;;;;;;;;7.49;93.53;101754.34;1640972;86;21129;-82
2021/11/15 07:08:08;;;;;;;;;;;;;;;7.55;93.60;101755.28;1646961;84;20652;-80
2021/11/15 07:10:34;;;;;;;;;;;;;;;7.62;93.37;101757.52;1648513;85;20456;-79
2021/11/15 07:13:00;;;;;;;;;;;;;;;7.58;93.32;101752.91;1644694;85;20212;-79
2021/11/15 07:15:26;;;;;;;;;;;;;;;7.58;92.95;101758.64;1650468;85;20192;-79
2021/11/15 07:17:52;;;;;;;;;;;;;;;7.71;93.13;101754.30;1647047;85;21121;-79
2021/11/15 07:20:17;;;;;;;;;;;;;;;7.72;92.90;101758.60;1643528;84;20191;-80
2021/11/15 07:22:47;;;;;;;;;;;;;;;7.80;92.65;101762.92;1653160;86;20239;-78
2021/11/15 07:25:12;;;;;;;;;;;;;;;7.79;92.52;101765.17;1649813;85;20514;-78
2021/11/15 07:27:38;;;;;;;;;;;;;;;7.82;92.31;101766.29;1643979;85;20159;-77
2021/11/15 07:30:05;;;;;;;;;;;;;;;7.85;92.18;101763.47;1646580;84;21288;-77
2021/11/15 07:32:31;;;;;;;;;;;;;;;7.79;91.71;101766.48;1643091;86;20167;-82
2021/11/15 07:34:56;;;;;;;;;;;;;;;7.83;91.82;101766.67;1643837;85;20167;-77
2021/11/15 07:37:22;;;;;;;;;;;;;;;7.89;91.79;101766.73;1649999;86;20422;-77
2021/11/15 07:39:47;;;;;;;;;;;;;;;7.88;91.48;101762.44;1644886;86;20470;-77
2021/11/15 07:42:15;;;;;;;;;;;;;;;7.93;91.72;101762.97;1640178;86;21125;-78
2021/11/15 07:44:40;;;;;;;;;;;;;;;7.85;91.26;101760.83;1649344;86;20154;-77
2021/11/15 07:47:06;;;;;;;;;;;;;;;7.85;91.05;101758.20;1647003;86;20255;-77
2021/11/15 07:49:32;;;;;;;;;;;;;;;7.93;91.53;101759.50;1641030;86;20106;-78
2021/11/15 07:51:57;;;;;;;;;;;;;;;7.87;91.31;101764.20;1646014;86;20180;-79
2021/11/15 07:54:23;;;;;;;;;;;;;;;7.86;90.91;101763.84;1643604;86;21203;-77
2021/11/15 07:56:49;;;;;;;;;;;;;;;7.79;91.30;101766.48;1643191;86;20302;-80
2021/11/15 07:59:15;;;;;;;;;;;;;;;7.91;91.13;101761.75;1639174;86;20196;-77
2021/11/15 08:01:40;;;;;;;;;;;;;;;7.88;90.93;101769.01;1646845;86;20453;-78
2021/11/15 08:04:06;;;;;;;;;;;;;;;7.89;90.89;101771.54;1640500;86;20121;-78
2021/11/15 08:06:32;;;;;;;;;;;;;;;7.95;90.81;101767.65;1639845;85;22136;-77
2021/11/15 08:08:57;;;;;;;;;;;;;;;7.98;90.65;101775.83;1632187;87;20502;-80
2021/11/15 08:11:24;;;;;;;;;;;;;;;7.96;90.07;101773.78;1627250;87;20141;-79
2021/11/15 08:13:50;;;;;;;;;;;;;;;7.72;90.90;101770.44;1632606;87;20465;-80
2021/11/15 08:16:15;;;;;;;;;;;;;;;7.71;90.82;101772.72;1635685;86;20259;-79
2021/11/15 08:18:41;;;;;;;;;;;;;;;7.71;91.00;101775.34;1633519;86;21122;-77
2021/11/15 08:21:13;;;;;;;;;;;;;;;7.67;91.76;101777.30;1629665;87;20296;-79
2021/11/15 08:23:37;;;;;;;;;;;;;;;7.68;91.63;101772.42;1636261;86;20516;-80
2021/11/15 08:26:26;;;;;;;;;;;;;;;7.82;91.35;101774.18;1635883;86;20143;-78
2021/11/15 08:28:53;;;;;;;;;;;;;;;7.82;91.17;101775.98;1632918;87;20214;-78
2021/11/15 08:31:18;;;;;;;;;;;;;;;7.78;90.73;101775.30;1634962;87;21149;-76
2021/11/15 08:33:44;;;;;;;;;;;;;;;7.78;90.70;101783.20;1631603;85;20141;-76
2021/11/15 08:36:10;;;;;;;;;;;;;;;7.68;91.22;101776.85;1636074;86;20205;-75
2021/11/15 08:38:59;;;;;;;;;;;;;;;7.80;90.94;101780.02;1634369;86;20145;-76
2021/11/15 08:41:31;;;;;;;;;;;;;;;7.81;90.70;101783.00;1631653;87;20186;-75
2021/11/15 08:43:57;;;;;;;;;;;;;;;7.80;90.52;101783.09;1631627;87;21071;-75
2021/11/15 08:46:24;;;;;;;;;;;;;;;7.81;90.49;101780.38;1632212;86;20206;-74
2021/11/15 08:48:50;;;;;;;;;;;;;;;7.83;90.04;101779.83;1635018;87;20134;-77
2021/11/15 08:51:16;;;;;;;;;;;;;;;7.81;90.30;101785.63;1634230;86;20129;-77
2021/11/15 08:53:42;;;;;;;;;;;;;;;7.77;90.56;101782.84;1634720;87;20232;-76
2021/11/15 08:56:08;;;;;;;;;;;;;;;7.80;90.33;101782.65;1632054;87;21114;-79
2021/11/15 08:58:34;;;;;;;;;;;;;;;7.84;90.32;101788.06;1630530;87;20220;-78
2021/11/15 09:00:59;;;;;;;;;;;;;;;7.89;90.27;101783.38;1632704;86;20276;-78
2021/11/15 09:03:25;;;;;;;;;;;;;;;7.95;90.12;101785.23;1634789;87;20157;-77
2021/11/15 09:05:50;;;;;;;;;;;;;;;7.91;89.91;101776.70;1637331;86;20183;-77
2021/11/15 09:08:17;;;;;;;;;;;;;;;7.98;89.66;101775.83;1642695;86;21088;-77
2021/11/15 09:10:43;;;;;;;;;;;;;;;8.00;89.68;101777.88;1642739;86;20653;-78
2021/11/15 09:13:10;;;;;;;;;;;;;;;7.97;89.37;101774.12;1644655;86;20194;-76
2021/11/15 09:15:36;;;;;;;;;;;;;;;8.04;89.14;101772.80;1635068;86;20192;-76
2021/11/15 09:18:01;;;;;;;;;;;;;;;8.20;88.32;101770.00;1641738;86;21154;-76
2021/11/15 09:20:27;;;;;;;;;;;;;;;8.33;87.75;101767.40;1653630;85;21165;-76
2021/11/15 09:22:53;;;;;;;;;;;;;;;8.42;87.70;101774.69;1644278;86;20168;-76
2021/11/15 09:25:18;;;;;;;;;;;;;;;8.38;87.42;101778.48;1652487;84;20302;-77
2021/11/15 09:27:44;;;;;;;;;;;;;;;8.32;87.18;101779.73;1641632;85;20429;-76
2021/11/15 09:30:11;;;;;;;;;;;;;;;8.27;87.36;101778.71;1641921;86;20233;-77
2021/11/15 09:32:37;;;;;;;;;;;;;;;8.31;87.37;101775.87;1645520;85;21220;-76
2021/11/15 09:35:03;;;;;;;;;;;;;;;8.33;87.07;101776.61;1643515;86;20221;-79
2021/11/15 09:37:29;;;;;;;;;;;;;;;8.37;87.02;101778.11;1634417;86;20191;-76
2021/11/15 09:39:55;;;;;;;;;;;;;;;8.38;87.08;101781.12;1638611;86;20139;-75
2021/11/15 09:42:21;;;;;;;;;;;;;;;8.32;86.78;101773.63;1646098;86;20181;-78
2021/11/15 09:44:46;;;;;;;;;;;;;;;8.32;87.45;101776.27;1643764;86;21219;-75
2021/11/15 09:47:12;;;;;;;;;;;;;;;8.19;87.46;101779.70;1635571;86;20310;-77
2021/11/15 09:49:38;;;;;;;;;;;;;;;8.17;87.37;101778.97;1652237;86;20549;-78
2021/11/15 09:52:08;;;;;;;;;;;;;;;8.20;87.60;101770.00;1648271;86;20712;-78
2021/11/15 09:54:34;;;;;;;;;;;;;;;8.27;87.19;101776.08;1637187;85;20241;-78
2021/11/15 09:56:59;;;;;;;;;;;;;;;8.22;87.24;101781.30;1636179;84;21108;-76
2021/11/15 09:59:28;;;;;;;;;;;;;;;8.12;87.37;101779.71;1636855;86;20235;-78
2021/11/15 10:01:52;;;;;;;;;;;;;;;8.10;87.27;101777.66;1642912;86;20213;-78
2021/11/15 10:04:19;;;;;;;;;;;;;;;8.14;87.36;101775.22;1641039;86;20470;-77
2021/11/15 10:06:45;;;;;;;;;;;;;;;8.18;87.14;101770.11;1644694;86;20510;-76
2021/11/15 10:09:11;;;;;;;;;;;;;;;8.25;87.01;101781.09;1652776;85;21086;-76
2021/11/15 10:11:39;;;;;;;;;;;;;;;8.30;87.05;101780.77;1654098;85;20859;-78
2021/11/15 10:14:05;;;;;;;;;;;;;;;8.30;87.26;101780.77;1650287;85;20124;-77
2021/11/15 10:16:33;;;;;;;;;;;;;;;8.20;87.21;101776.13;1655625;85;20158;-77
2021/11/15 10:19:02;;;;;;;;;;;;;;;8.20;87.50;101770.87;1656997;85;20501;-79
2021/11/15 10:21:41;;;;;;;;;;;;;;;8.30;87.26;101765.83;1651274;86;21170;-80
2021/11/15 10:24:21;;;;;;;;;;;;;;;8.30;87.31;101772.86;1653800;85;20165;-79
2021/11/15 10:26:57;;;;;;;;;;;;;;;8.41;87.25;101775.17;1652678;85;20169;-77
2021/11/15 10:29:35;;;;;;;;;;;;;;;8.51;86.89;101772.79;1648022;86;20206;-78
2021/11/15 10:32:09;;;;;;;;;;;;;;;8.44;87.06;101779.43;1647033;85;20178;-78
2021/11/15 10:34:46;;;;;;;;;;;;;;;8.45;86.58;101777.15;1652283;86;21996;-80
2021/11/15 10:37:15;;;;;;;;;;;;;;;8.50;86.32;101775.08;1658261;85;20171;-78
2021/11/15 10:39:49;;;;;;;;;;;;;;;8.33;86.67;101775.30;1653196;84;20147;-78
2021/11/15 10:42:18;;;;;;;;;;;;;;;8.44;86.87;101780.75;1656109;85;20204;-77
2021/11/15 10:44:58;;;;;;;;;;;;;;;8.40;86.56;101774.79;1648872;85;20561;-75
2021/11/15 10:47:31;;;;;;;;;;;;;;;8.46;86.53;101778.02;1660021;85;21357;-76
2021/11/15 10:50:43;;;;;;;;;;;;;;;8.42;86.48;101778.19;1637630;86;37841;-76
2021/11/15 10:52:41;;;;;;;;;;;;;;;8.36;86.46;101775.09;1643513;86;20118;-76
2021/11/15 10:55:08;;;;;;;;;;;;;;;8.39;86.72;101781.02;1651450;86;20232;-77
2021/11/15 10:57:39;;;;;;;;;;;;;;;8.44;86.81;101776.80;1648918;86;20203;-77
2021/11/15 11:00:10;;;;;;;;;;;;;;;8.38;86.98;101774.54;1651230;86;21165;-76
2021/11/15 11:02:40;;;;;;;;;;;;;;;8.36;86.91;101777.72;1652877;85;20482;-75
2021/11/15 11:05:10;;;;;;;;;;;;;;;8.34;86.59;101771.73;1646033;86;20240;-75
2021/11/15 11:07:36;;;;;;;;;;;;;;;8.26;86.89;101774.41;1655890;85;20198;-76
2021/11/15 11:10:04;;;;;;;;;;;;;;;8.13;86.99;101774.83;1655801;85;20823;-75
2021/11/15 11:12:40;;;;;;;;;;;;;;;8.21;87.13;101764.64;1656196;85;21053;-74
2021/11/15 11:15:38;;;;;;;;;;;;;;;8.23;86.88;101773.30;1629285;86;20291;-83
2021/11/15 11:25:55;;;;;;;;;;;;;;;8.42;86.37;101776.87;1650911;85;20195;-79
2021/11/15 11:28:29;;;;;;;;;;;;;;;8.41;86.05;101773.02;1655125;86;20228;-76
2021/11/15 11:30:56;;;;;;;;;;;;;;;8.45;86.04;101767.93;1650945;85;20150;-78
2021/11/15 11:33:23;;;;;;;;;;;;;;;8.49;85.92;101767.28;1658131;85;20234;-79
2021/11/15 11:35:50;;;;;;;;;;;;;;;8.51;86.05;101771.47;1661134;85;20180;-79
2021/11/15 11:38:17;;;;;;;;;;;;;;;8.50;86.09;101764.55;1658362;86;21845;-81
2021/11/15 11:40:43;;;;;;;;;;;;;;;8.57;85.98;101763.64;1651782;85;20184;-79
2021/11/15 11:43:09;;;;;;;;;;;;;;;8.56;85.77;101759.31;1653194;85;20150;-80
2021/11/15 11:45:35;;;;;;;;;;;;;;;8.59;85.70;101759.97;1653903;85;20154;-78
2021/11/15 11:48:01;;;;;;;;;;;;;;;8.63;85.66;101761.44;1651796;85;20157;-82
2021/11/15 11:50:29;;;;;;;;;;;;;;;8.52;85.36;101760.00;1659109;85;21166;-82
2021/11/15 11:53:08;;;;;;;;;;;;;;;8.63;85.56;101758.80;1655984;85;20498;-81
2021/11/15 11:55:35;;;;;;;;;;;;;;;8.62;84.96;101755.81;1659287;85;20094;-78
2021/11/15 11:58:32;;;;;;;;;;;;;;;8.61;85.26;101752.80;1657882;85;20803;-77
2021/11/15 12:01:07;;;;;;;;;;;;;;;8.59;85.00;101757.80;1651395;86;20185;-80
2021/11/15 12:03:32;;;;;;;;;;;;;;;8.63;84.86;101754.02;1651577;86;21161;-80
2021/11/15 12:06:02;;;;;;;;;;;;;;;8.62;84.55;101754.50;1656365;86;20817;-79
2021/11/15 12:08:51;;;;;;;;;;;;;;;8.40;85.09;101752.89;1648913;85;20158;-78
2021/11/15 12:11:33;;;;;;;;;;;;;;;8.30;85.68;101749.17;1647959;85;20153;-78
2021/11/15 12:13:58;;;;;;;;;;;;;;;8.37;85.62;101754.41;1647233;85;20181;-80
2021/11/15 12:16:24;;;;;;;;;;;;;;;8.26;85.88;101752.05;1651067;86;21185;-79
2021/11/15 12:19:00;;;;;;;;;;;;;;;8.22;86.17;101754.98;1648525;85;20475;-79
2021/11/15 12:21:33;;;;;;;;;;;;;;;8.27;86.11;101756.34;1645679;85;20226;-77
2021/11/15 12:24:10;;;;;;;;;;;;;;;8.38;85.81;101752.16;1649984;85;20765;-77
2021/11/15 12:26:45;;;;;;;;;;;;;;;8.42;85.81;101752.31;1647528;86;20202;-80
2021/11/15 12:29:30;;;;;;;;;;;;;;;8.33;86.00;101754.23;1645112;86;20576;-78
2021/11/15 12:32:02;;;;;;;;;;;;;;;8.39;85.97;101751.20;1648521;85;20211;-77
2021/11/15 12:34:39;;;;;;;;;;;;;;;8.40;85.96;101751.58;1645285;86;20129;-77
2021/11/15 12:37:07;;;;;;;;;;;;;;;8.26;85.96;101752.50;1625808;87;20925;-77
2021/11/15 12:39:41;;;;;;;;;;;;;;;8.16;86.43;101748.32;1635162;86;20128;-78
2021/11/15 12:42:24;;;;;;;;;;;;;;;8.09;86.78;101744.39;1628872;86;21214;-80
2021/11/15 12:45:11;;;;;;;;;;;;;;;8.19;86.91;101732.33;1631198;86;20226;-80
2021/11/15 12:47:42;;;;;;;;;;;;;;;8.18;86.94;101729.31;1618799;87;20215;-79
2021/11/15 12:50:16;;;;;;;;;;;;;;;8.10;86.99;101739.52;1630368;86;20154;-79
2021/11/15 12:52:42;;;;;;;;;;;;;;;8.19;86.95;101734.96;1627041;86;20225;-80
2021/11/15 12:55:16;;;;;;;;;;;;;;;8.22;86.61;101742.66;1633891;86;21958;-78
2021/11/15 12:57:44;;;;;;;;;;;;;;;8.14;87.00;101742.33;1631158;86;20142;-79